Time;durP1;ratioP1;P1;durP2;ratioP2;P2;SDS_P1;SDS_P2;PMS_P1;PMS_P2;Temp;Humidity;BMP_temperature;BMP_pressure;BME280_temperature;BME280_humidity;BME280_pressure;Samples;Min_cycle;Max_cycle;Signal;HPM_P1;HPM_P2
2021/12/14 00:00:17;;;;;;;8.77;4.50;;;;;;;9.41;99.79;102594.66;4877249;29;20061;-47
2021/12/14 00:03:09;;;;;;;6.28;4.05;;;;;;;9.39;99.41;102594.88;4877370;29;20103;-48
2021/12/14 00:05:40;;;;;;;7.13;4.25;;;;;;;9.42;100.00;102576.44;4863109;29;20057;-49
2021/12/14 00:08:35;;;;;;;6.15;3.70;;;;;;;9.39;100.00;102573.13;4876565;29;20064;-45
2021/12/14 00:11:51;;;;;;;6.57;4.22;;;;;;;9.39;99.62;102581.28;4859094;29;20085;-49
2021/12/14 00:17:40;;;;;;;7.18;4.50;;;;;;;9.38;100.00;102563.28;4867037;29;20064;-45
2021/12/14 00:20:36;;;;;;;6.05;3.90;;;;;;;9.38;99.80;102574.19;4879209;29;20516;-49
2021/12/14 00:26:42;;;;;;;7.38;4.40;;;;;;;9.34;99.65;102586.53;4877286;29;20056;-51
2021/12/14 00:29:34;;;;;;;7.25;4.35;;;;;;;9.34;99.94;102586.53;4865404;29;20045;-45
2021/12/14 00:32:25;;;;;;;7.70;4.70;;;;;;;9.34;99.56;102593.88;4865199;29;20139;-46
2021/12/14 00:35:13;;;;;;;5.80;3.95;;;;;;;9.32;99.72;102594.06;4876722;29;20108;-43
2021/12/14 00:38:01;;;;;;;7.38;4.53;;;;;;;9.31;99.63;102592.41;4862579;29;20068;-47
2021/12/14 00:41:02;;;;;;;7.38;4.90;;;;;;;9.31;99.58;102600.56;4876110;29;20049;-48
2021/12/14 00:43:51;;;;;;;6.65;4.25;;;;;;;9.31;99.53;102602.47;4850372;29;20144;-48
2021/12/14 00:46:39;;;;;;;5.80;4.10;;;;;;;9.30;99.67;102601.59;4878930;29;20060;-49
2021/12/14 00:49:29;;;;;;;7.57;4.65;;;;;;;9.31;99.86;102608.72;4879370;29;20048;-49
2021/12/14 00:52:17;;;;;;;7.75;4.72;;;;;;;9.30;99.58;102612.50;4869186;29;20480;-47
2021/12/14 00:55:08;;;;;;;7.20;4.72;;;;;;;9.29;99.69;102616.28;4876459;29;20056;-47
2021/12/14 00:57:55;;;;;;;6.80;4.32;;;;;;;9.29;99.73;102621.72;4876389;29;20048;-49
2021/12/14 01:00:48;;;;;;;6.97;4.50;;;;;;;9.30;99.79;102628.81;4878020;29;20053;-47
2021/12/14 01:03:38;;;;;;;7.50;4.05;;;;;;;9.28;99.99;102630.91;4864999;29;20102;-47
2021/12/14 01:06:30;;;;;;;7.93;4.57;;;;;;;9.27;99.82;102621.09;4864688;29;20049;-48
2021/12/14 01:09:23;;;;;;;6.72;4.00;;;;;;;9.26;99.93;102619.44;4852476;29;20072;-49
2021/12/14 01:12:23;;;;;;;6.43;3.67;;;;;;;9.27;100.00;102607.47;4874389;29;20159;-46
2021/12/14 01:15:31;;;;;;;7.43;4.47;;;;;;;9.28;100.00;102614.59;4881348;29;20136;-46
2021/12/14 01:18:31;;;;;;;6.53;4.50;;;;;;;9.28;100.00;102611.88;4868337;29;20057;-47
2021/12/14 01:24:34;;;;;;;8.15;4.38;;;;;;;9.28;100.00;102613.75;4879741;29;20393;-48
2021/12/14 01:27:27;;;;;;;9.55;4.60;;;;;;;9.26;100.00;102619.44;4879973;29;20156;-47
2021/12/14 01:30:21;;;;;;;6.82;4.40;;;;;;;9.24;100.00;102607.09;4868074;29;20061;-48
2021/12/14 01:33:12;;;;;;;5.27;3.77;;;;;;;9.25;100.00;102587.00;4868440;29;20049;-45
2021/12/14 01:36:07;;;;;;;11.95;3.92;;;;;;;9.28;100.00;102586.56;4881756;29;20052;-48
2021/12/14 01:42:23;;;;;;;5.13;3.45;;;;;;;9.29;100.00;102570.03;4842710;29;20144;-48
2021/12/14 01:45:16;;;;;;;6.53;4.28;;;;;;;9.28;100.00;102586.56;4828247;29;20471;-45
2021/12/14 01:48:05;;;;;;;9.88;5.43;;;;;;;9.23;100.00;102589.91;4859176;29;20054;-47
2021/12/14 01:51:06;;;;;;;8.15;4.72;;;;;;;9.22;100.00;102580.09;4848209;29;20057;-46
2021/12/14 01:54:18;;;;;;;7.05;4.20;;;;;;;9.23;100.00;102580.94;4848274;29;20538;-48
2021/12/14 01:57:09;;;;;;;7.13;4.38;;;;;;;9.21;100.00;102570.25;4834559;29;20149;-48
2021/12/14 01:59:58;;;;;;;7.80;4.30;;;;;;;9.20;100.00;102574.03;4855363;29;20115;-49
2021/12/14 02:02:47;;;;;;;6.07;3.83;;;;;;;9.24;100.00;102575.28;4827973;29;20183;-46
2021/12/14 02:05:45;;;;;;;6.47;4.45;;;;;;;9.21;100.00;102564.00;4844402;29;20501;-48
2021/12/14 02:08:32;;;;;;;7.55;3.88;;;;;;;9.25;100.00;102560.63;4830891;29;20049;-48
2021/12/14 02:11:20;;;;;;;6.22;4.10;;;;;;;9.23;100.00;102556.44;4858866;29;20504;-47
2021/12/14 02:14:08;;;;;;;9.60;4.20;;;;;;;9.18;100.00;102544.31;4847721;29;20065;-47
2021/12/14 02:16:59;;;;;;;7.50;4.05;;;;;;;9.22;100.00;102555.63;4846449;29;20081;-49
2021/12/14 02:19:48;;;;;;;7.32;4.07;;;;;;;9.20;100.00;102555.00;4833578;29;20064;-51
2021/12/14 02:22:36;;;;;;;9.15;5.15;;;;;;;9.17;100.00;102569.03;4862520;29;20041;-52
2021/12/14 02:25:24;;;;;;;6.50;4.60;;;;;;;9.15;100.00;102577.41;4849500;29;20440;-48
2021/12/14 02:28:15;;;;;;;6.50;4.32;;;;;;;9.16;100.00;102561.91;4848841;29;20389;-44
2021/12/14 02:31:07;;;;;;;6.20;4.00;;;;;;;9.17;100.00;102569.03;4860120;29;20093;-43
2021/12/14 02:33:57;;;;;;;6.30;4.20;;;;;;;9.16;100.00;102578.22;4861799;29;20092;-44
2021/12/14 02:36:47;;;;;;;7.68;4.40;;;;;;;9.13;100.00;102568.63;4861589;29;20049;-47
2021/12/14 02:42:30;;;;;;;6.43;4.53;;;;;;;9.10;100.00;102584.53;4877368;29;20144;-45
2021/12/14 02:45:22;;;;;;;6.80;4.28;;;;;;;9.09;100.00;102577.41;4878362;29;20460;-47
2021/12/14 02:48:10;;;;;;;7.45;4.63;;;;;;;9.08;100.00;102571.16;4846522;29;20110;-46
2021/12/14 02:51:10;;;;;;;6.78;4.55;;;;;;;9.09;100.00;102566.53;4848124;29;20052;-49
2021/12/14 02:54:06;;;;;;;9.00;4.50;;;;;;;9.08;100.00;102554.84;4861201;29;20434;-47
2021/12/14 02:57:03;;;;;;;;;;;;;;;9.09;100.00;102534.78;4846716;29;20085;-45
2021/12/14 02:59:51;;;;;;;7.32;4.70;;;;;;;9.09;100.00;102555.66;4859040;29;20355;-45
2021/12/14 03:02:39;;;;;;;8.93;4.78;;;;;;;9.07;100.00;102542.31;4862001;29;20107;-47
2021/12/14 03:05:31;;;;;;;6.53;3.92;;;;;;;9.07;100.00;102558.63;4861847;29;20049;-48
2021/12/14 03:08:28;;;;;;;6.63;4.60;;;;;;;9.06;99.93;102556.09;4845186;29;20068;-48
2021/12/14 03:11:17;;;;;;;6.32;3.42;;;;;;;9.08;100.00;102532.25;4846139;29;20145;-44
2021/12/14 03:14:05;;;;;;;6.78;3.83;;;;;;;9.08;100.00;102532.25;4861860;29;20461;-44
2021/12/14 03:16:53;;;;;;;6.40;4.10;;;;;;;9.09;100.00;102520.31;4846172;29;20098;-46
2021/12/14 03:19:40;;;;;;;6.05;3.50;;;;;;;9.09;99.97;102523.91;4844163;29;20061;-46
2021/12/14 03:22:34;;;;;;;5.47;3.67;;;;;;;9.09;100.00;102514.88;4829841;29;20053;-46
2021/12/14 03:25:22;;;;;;;6.53;4.15;;;;;;;9.06;99.28;102524.31;4843235;29;20069;-49
2021/12/14 03:28:15;;;;;;;6.35;3.83;;;;;;;9.07;99.91;102519.72;4840948;29;20061;-49
2021/12/14 03:31:19;;;;;;;6.38;4.20;;;;;;;9.07;99.66;102514.28;4838789;29;20054;-48
2021/12/14 03:34:18;;;;;;;6.47;4.32;;;;;;;9.05;99.26;102516.38;4829330;29;20138;-49
2021/12/14 03:37:15;;;;;;;5.00;3.20;;;;;;;9.10;100.00;102511.94;4842971;29;20134;-47
2021/12/14 03:40:05;;;;;;;6.53;4.50;;;;;;;9.02;98.95;102520.38;4834680;29;20045;-47
2021/12/14 03:42:55;;;;;;;6.63;4.13;;;;;;;9.02;99.02;102522.22;4847243;29;20073;-46
2021/12/14 03:45:44;;;;;;;6.68;4.38;;;;;;;9.00;99.15;102537.94;4849870;29;20415;-46
2021/12/14 03:48:33;;;;;;;7.22;4.28;;;;;;;8.99;98.52;102539.81;4863738;29;20457;-43
2021/12/14 03:51:23;;;;;;;6.18;4.43;;;;;;;8.98;98.76;102548.19;4879239;29;20127;-47
2021/12/14 03:54:15;;;;;;;7.10;4.45;;;;;;;8.98;98.47;102559.06;4859249;29;20100;-46
2021/12/14 03:57:03;;;;;;;6.50;4.45;;;;;;;8.96;98.57;102562.81;4863817;29;20135;-48
2021/12/14 03:59:51;;;;;;;7.25;4.32;;;;;;;8.98;98.36;102567.22;4863824;29;20057;-47
2021/12/14 04:02:42;;;;;;;7.30;4.50;;;;;;;8.95;98.20;102580.19;4877956;29;20048;-44
2021/12/14 04:05:33;;;;;;;6.72;4.43;;;;;;;8.95;98.55;102582.91;4865358;29;20136;-44
2021/12/14 04:08:24;;;;;;;6.68;4.47;;;;;;;8.95;98.02;102588.34;4865357;29;20053;-43
2021/12/14 04:11:14;;;;;;;7.90;4.75;;;;;;;8.93;98.08;102585.00;4878164;29;20547;-44
2021/12/14 04:14:02;;;;;;;7.40;4.55;;;;;;;8.94;97.85;102572.25;4865244;29;20508;-47
2021/12/14 04:16:55;;;;;;;7.30;4.78;;;;;;;8.92;98.19;102577.91;4865626;29;20053;-45
2021/12/14 04:19:43;;;;;;;7.05;4.80;;;;;;;8.94;97.88;102575.78;4865224;29;20101;-45
2021/12/14 04:22:33;;;;;;;7.68;4.75;;;;;;;8.95;98.10;102577.47;4862813;29;20543;-45
2021/12/14 04:25:28;;;;;;;6.63;4.38;;;;;;;8.93;97.99;102568.69;4865431;29;20053;-47
2021/12/14 04:28:21;;;;;;;8.83;5.03;;;;;;;8.93;97.84;102570.59;4878201;29;20045;-45
2021/12/14 04:31:11;;;;;;;7.40;5.00;;;;;;;8.92;98.38;102560.75;4864671;29;20049;-45
2021/12/14 04:33:59;;;;;;;6.22;4.15;;;;;;;8.92;98.06;102558.88;4875597;29;20051;-45
2021/12/14 04:36:51;;;;;;;7.50;4.72;;;;;;;8.95;98.23;102561.16;4875984;29;20061;-47
2021/12/14 04:39:55;;;;;;;7.65;5.30;;;;;;;8.95;97.95;102550.28;4865096;29;20057;-51
2021/12/14 04:52:15;;;;;;;;;;;;;;;8.94;98.99;102547.78;4857634;29;20521;-51
2021/12/14 04:55:10;;;;;;;8.07;5.43;;;;;;;8.93;97.71;102552.38;4870951;29;19924;-47
2021/12/14 04:57:59;;;;;;;6.78;4.55;;;;;;;8.92;98.37;102550.72;4862537;29;20053;-49
2021/12/14 05:00:49;;;;;;;7.40;5.10;;;;;;;8.94;98.44;102545.06;4876133;29;20595;-47
2021/12/14 05:03:52;;;;;;;8.18;5.88;;;;;;;8.92;98.24;102550.72;4863077;29;20053;-47
2021/12/14 05:06:53;;;;;;;8.93;6.40;;;;;;;8.88;97.86;102557.63;4864931;29;20057;-49
2021/12/14 05:09:41;;;;;;;9.45;6.80;;;;;;;8.82;98.25;102539.44;4878706;29;20060;-50
2021/12/14 05:12:38;;;;;;;9.05;6.78;;;;;;;8.79;98.21;102539.88;4861824;29;20057;-49
2021/12/14 05:15:37;;;;;;;11.77;7.15;;;;;;;8.77;98.68;102543.88;4863211;29;20054;-48
2021/12/14 05:18:25;;;;;;;10.40;7.53;;;;;;;8.76;99.07;102540.31;4846296;29;20068;-48
2021/12/14 05:21:20;;;;;;;10.18;6.90;;;;;;;8.76;98.96;102540.31;4856315;29;20053;-50
2021/12/14 05:24:11;;;;;;;12.77;7.32;;;;;;;8.80;98.95;102541.53;4875508;29;20112;-49
2021/12/14 05:27:06;;;;;;;11.48;6.65;;;;;;;8.82;98.58;102539.44;4862539;29;20514;-48
2021/12/14 05:30:11;;;;;;;10.15;7.35;;;;;;;8.83;98.64;102529.44;4862028;29;20090;-49
2021/12/14 05:33:25;;;;;;;9.35;6.80;;;;;;;8.84;98.65;102537.34;4863948;29;20128;-49
2021/12/14 05:36:19;;;;;;;8.13;5.82;;;;;;;8.91;99.67;102534.63;4864063;29;20064;-48
2021/12/14 05:46:00;;;;;;;6.38;4.57;;;;;;;9.05;100.00;102529.97;4877257;29;20415;-50
2021/12/14 05:49:03;;;;;;;6.72;4.90;;;;;;;9.16;100.00;102534.72;4864172;29;20101;-50
2021/12/14 05:51:53;;;;;;;10.02;7.25;;;;;;;9.04;100.00;102547.31;4868863;29;20061;-49
2021/12/14 05:54:40;;;;;;;10.35;7.80;;;;;;;8.95;99.65;102539.41;4875214;29;20049;-45
2021/12/14 05:57:28;;;;;;;12.50;8.25;;;;;;;8.92;99.89;102558.03;4865889;29;20408;-46
2021/12/14 06:00:18;;;;;;;11.65;8.52;;;;;;;8.90;100.00;102555.53;4878861;29;20048;-46
2021/12/14 06:03:21;;;;;;;9.40;7.07;;;;;;;8.89;100.00;102556.56;4867667;29;20052;-50
2021/12/14 06:06:15;;;;;;;7.80;5.38;;;;;;;8.91;99.98;102550.94;4867777;29;20041;-49
2021/12/14 06:09:08;;;;;;;12.60;9.13;;;;;;;8.87;99.19;102553.22;4864913;29;20140;-49
2021/12/14 06:12:02;;;;;;;12.80;8.25;;;;;;;8.88;99.89;102557.63;4867252;29;20128;-48
2021/12/14 06:14:52;;;;;;;9.50;6.82;;;;;;;8.89;99.26;102561.19;4867468;29;20053;-48
2021/12/14 06:17:42;;;;;;;10.52;8.38;;;;;;;8.86;99.32;102567.88;4881265;29;20127;-48
2021/12/14 06:20:55;;;;;;;11.80;7.32;;;;;;;8.92;100.00;102558.88;4868663;29;20416;-51
2021/12/14 06:23:48;;;;;;;13.27;9.40;;;;;;;8.85;99.15;102576.25;4880308;29;20049;-49
2021/12/14 06:26:48;;;;;;;10.93;8.73;;;;;;;8.81;99.06;102573.13;4867795;29;20057;-46
2021/12/14 06:29:47;;;;;;;12.65;9.40;;;;;;;8.82;99.37;102574.78;4864806;29;20147;-49
2021/12/14 06:32:39;;;;;;;11.15;9.32;;;;;;;8.82;99.11;102580.22;4859922;29;20104;-48
2021/12/14 06:35:35;;;;;;;12.30;9.50;;;;;;;8.82;99.38;102576.69;4865064;29;20564;-51
2021/12/14 06:38:35;;;;;;;11.05;8.70;;;;;;;8.82;98.80;102580.22;4866983;29;20052;-49
2021/12/14 06:41:24;;;;;;;12.95;10.27;;;;;;;8.83;99.26;102572.94;4864318;29;20060;-50
2021/12/14 06:44:19;;;;;;;13.95;10.43;;;;;;;8.81;98.80;102575.03;4880176;29;20049;-47
2021/12/14 06:47:07;;;;;;;14.82;11.00;;;;;;;8.82;99.30;102587.53;4878613;29;20096;-48
2021/12/14 06:49:55;;;;;;;13.30;11.13;;;;;;;8.79;99.04;102596.97;4864605;29;20472;-44
2021/12/14 06:52:42;;;;;;;12.88;10.02;;;;;;;8.79;99.24;102602.41;4877567;29;20175;-47
2021/12/14 06:55:56;;;;;;;13.02;9.80;;;;;;;8.86;98.97;102595.06;4880390;29;20136;-51
2021/12/14 06:59:21;;;;;;;13.15;11.30;;;;;;;8.82;99.03;102601.97;4880504;29;20057;-52
2021/12/14 07:02:29;;;;;;;14.10;11.05;;;;;;;8.78;99.10;102603.47;4149506;29;10000648;-52
2021/12/14 07:05:26;;;;;;;14.60;11.20;;;;;;;8.76;98.84;102605.56;4802976;29;20058;-50
2021/12/14 07:08:26;;;;;;;13.98;10.70;;;;;;;8.78;99.00;102608.91;4802789;29;20062;-50
2021/12/14 07:11:25;;;;;;;12.82;9.85;;;;;;;8.81;99.43;102611.19;4818215;29;20062;-50
2021/12/14 07:14:25;;;;;;;13.38;10.85;;;;;;;8.81;99.03;102607.63;4817429;29;20760;-50
2021/12/14 07:17:19;;;;;;;14.95;12.40;;;;;;;8.80;99.03;102611.38;4821045;29;20061;-48
2021/12/14 07:20:23;;;;;;;15.63;12.15;;;;;;;8.78;98.90;102622.47;4809373;29;20510;-48
2021/12/14 07:23:32;;;;;;;15.27;12.63;;;;;;;8.77;99.19;102631.66;4805443;29;20050;-47
2021/12/14 07:26:18;;;;;;;16.15;12.25;;;;;;;8.79;98.76;102634.19;4821032;29;20059;-47
2021/12/14 07:29:06;;;;;;;19.85;13.00;;;;;;;8.79;99.04;102635.00;4820043;29;20043;-45
2021/12/14 07:31:53;;;;;;;15.05;10.90;;;;;;;8.79;99.44;102634.19;4818483;29;20554;-47
2021/12/14 07:34:41;;;;;;;15.48;12.70;;;;;;;8.78;98.83;102641.50;4819171;29;20147;-46
2021/12/14 07:37:34;;;;;;;13.32;10.32;;;;;;;8.79;99.30;102636.91;4820298;29;20055;-48
2021/12/14 07:40:25;;;;;;;16.83;13.25;;;;;;;8.79;98.88;102648.59;4872962;29;20197;-51
2021/12/14 07:43:24;;;;;;;17.48;11.55;;;;;;;8.78;99.38;102649.66;4861659;29;20508;-52
2021/12/14 07:46:32;;;;;;;16.95;13.10;;;;;;;8.79;99.46;102651.31;4877744;29;20056;-49
2021/12/14 07:49:40;;;;;;;10.30;7.45;;;;;;;8.88;100.00;102658.22;4871576;29;20492;-48
2021/12/14 07:52:32;;;;;;;16.10;13.43;;;;;;;8.86;99.77;102660.31;4871147;29;20468;-47
2021/12/14 07:55:21;;;;;;;20.35;14.98;;;;;;;8.78;98.99;102663.25;4878365;29;20045;-44
2021/12/14 07:58:10;;;;;;;20.48;16.33;;;;;;;8.76;99.68;102654.47;4879622;29;20496;-45
2021/12/14 08:00:58;;;;;;;18.70;15.70;;;;;;;8.72;99.40;102670.34;4877211;29;20113;-50
2021/12/14 08:03:45;;;;;;;19.42;15.00;;;;;;;8.68;99.49;102668.25;4878861;29;20045;-52
2021/12/14 08:07:00;;;;;;;20.10;13.43;;;;;;;8.70;99.82;102671.59;4879329;29;20072;-51
2021/12/14 08:09:52;;;;;;;18.10;13.48;;;;;;;8.74;99.76;102667.44;4879023;29;20143;-48
2021/12/14 08:12:42;;;;;;;19.42;14.23;;;;;;;8.76;99.88;102668.06;4877505;29;20408;-55
2021/12/14 08:15:37;;;;;;;20.23;14.27;;;;;;;8.78;99.63;102671.41;4876339;29;20056;-47
2021/12/14 08:18:25;;;;;;;17.30;10.38;;;;;;;8.83;100.00;102666.16;4878950;29;20470;-53
2021/12/14 08:21:24;;;;;;;19.20;12.95;;;;;;;8.84;100.00;102673.25;4879054;29;20529;-53
2021/12/14 08:24:14;;;;;;;20.27;15.32;;;;;;;8.82;99.85;102674.53;4879468;29;20138;-49
2021/12/14 08:27:03;;;;;;;19.98;15.80;;;;;;;8.80;99.53;102672.00;4847275;29;20148;-53
2021/12/14 08:29:54;;;;;;;21.52;12.32;;;;;;;8.88;100.00;102679.97;4860804;29;20076;-54
2021/12/14 08:32:42;;;;;;;17.25;13.05;;;;;;;8.84;99.56;102678.69;4860713;29;20077;-48
2021/12/14 08:35:30;;;;;;;20.52;14.50;;;;;;;8.86;99.60;102686.66;4850039;29;20088;-51
2021/12/14 08:38:18;;;;;;;19.05;12.48;;;;;;;8.82;100.00;102675.34;4875407;29;20519;-53
2021/12/14 08:41:16;;;;;;;15.07;10.90;;;;;;;8.87;100.00;102677.44;4878852;29;20053;-51
2021/12/14 08:44:10;;;;;;;21.13;13.45;;;;;;;8.94;100.00;102681.81;4878818;29;20061;-47
2021/12/14 08:46:57;;;;;;;19.70;11.57;;;;;;;8.92;100.00;102683.06;4878411;29;20499;-47
2021/12/14 08:49:46;;;;;;;19.27;12.93;;;;;;;8.91;100.00;102690.41;4878696;29;20077;-45
2021/12/14 08:52:34;;;;;;;17.25;12.45;;;;;;;8.93;100.00;102687.50;4878659;29;20049;-47
2021/12/14 08:55:25;;;;;;;18.42;11.25;;;;;;;8.94;100.00;102684.53;4878513;29;20045;-49
2021/12/14 08:58:14;;;;;;;20.38;16.50;;;;;;;8.90;100.00;102691.47;4875589;29;20056;-49
2021/12/14 09:01:08;;;;;;;16.25;12.18;;;;;;;8.90;100.00;102682.47;4864681;29;20056;-50
2021/12/14 09:04:04;;;;;;;19.17;14.67;;;;;;;8.93;100.00;102684.78;4878526;29;20092;-49
2021/12/14 09:06:55;;;;;;;20.52;17.67;;;;;;;8.90;100.00;102691.47;4875606;29;20072;-52
2021/12/14 09:09:44;;;;;;;19.63;15.20;;;;;;;8.90;100.00;102686.03;4876099;29;20075;-52
2021/12/14 09:12:39;;;;;;;21.35;14.90;;;;;;;8.93;100.00;102688.31;4876476;29;20061;-49
2021/12/14 09:15:32;;;;;;;16.83;12.30;;;;;;;9.02;100.00;102683.50;4876064;29;20492;-50
2021/12/14 09:18:21;;;;;;;17.48;10.93;;;;;;;9.13;100.00;102691.00;4877992;29;20061;-51
2021/12/14 09:21:19;;;;;;;20.45;16.63;;;;;;;9.05;100.00;102690.41;4875561;29;20446;-51
2021/12/14 09:24:16;;;;;;;22.08;18.17;;;;;;;8.99;100.00;102696.66;4860222;29;20058;-50
2021/12/14 09:27:09;;;;;;;22.23;17.20;;;;;;;8.94;100.00;102694.59;4876498;29;20060;-49
2021/12/14 09:29:58;;;;;;;21.13;15.27;;;;;;;8.91;100.00;102695.84;4862257;29;20250;-48
2021/12/14 09:32:46;;;;;;;22.38;16.23;;;;;;;8.91;100.00;102690.41;4881927;29;20052;-47
2021/12/14 09:35:35;;;;;;;21.30;16.02;;;;;;;8.96;100.00;102696.03;4882127;29;20476;-49
2021/12/14 09:38:31;;;;;;;25.70;16.85;;;;;;;8.94;100.00;102697.31;4866593;29;20120;-50
2021/12/14 09:41:24;;;;;;;24.35;18.88;;;;;;;9.03;100.00;102700.66;4878648;29;20053;-52
2021/12/14 09:44:14;;;;;;;21.55;16.33;;;;;;;8.98;100.00;102695.84;4878978;29;20065;-47
2021/12/14 09:47:08;;;;;;;23.33;19.58;;;;;;;8.97;100.00;102688.72;4880968;29;20076;-48
2021/12/14 09:49:57;;;;;;;21.10;16.40;;;;;;;9.00;100.00;102682.03;4881370;29;20441;-50
2021/12/14 09:52:47;;;;;;;20.98;15.80;;;;;;;9.00;100.00;102672.00;4881401;29;20049;-49
2021/12/14 09:55:39;;;;;;;19.77;13.73;;;;;;;9.12;100.00;102678.47;4881713;29;20049;-51
2021/12/14 09:58:34;;;;;;;27.08;20.00;;;;;;;9.11;100.00;102684.09;4881475;29;20049;-51
2021/12/14 10:01:26;;;;;;;17.15;13.18;;;;;;;9.10;100.00;102683.28;4881517;29;20053;-54
2021/12/14 10:04:19;;;;;;;27.27;19.77;;;;;;;9.05;100.00;102683.06;4879376;29;20076;-49
2021/12/14 10:07:10;;;;;;;26.13;20.65;;;;;;;9.04;100.00;102683.28;4880882;29;20124;-48
2021/12/14 10:09:59;;;;;;;22.58;17.67;;;;;;;9.09;100.00;102686.19;4878631;29;20389;-49
2021/12/14 10:12:54;;;;;;;22.42;18.10;;;;;;;9.05;100.00;102685.78;4881361;29;20049;-50
2021/12/14 10:15:48;;;;;;;24.52;19.30;;;;;;;9.04;100.00;102683.28;4881333;29;20560;-54
2021/12/14 10:19:02;;;;;;;23.42;19.00;;;;;;;9.04;100.00;102684.09;4878213;29;20053;-50
2021/12/14 10:21:53;;;;;;;21.75;17.52;;;;;;;9.05;100.00;102684.97;4860290;29;20500;-48
2021/12/14 10:24:41;;;;;;;24.23;19.40;;;;;;;9.22;100.00;102680.72;4862465;29;20501;-53
2021/12/14 10:27:32;;;;;;;22.75;16.38;;;;;;;9.19;100.00;102686.59;4862559;29;20049;-50
2021/12/14 10:30:39;;;;;;;22.88;16.38;;;;;;;9.19;100.00;102686.59;4879830;29;20100;-50
2021/12/14 10:33:13;;;;;;;25.10;19.65;;;;;;;9.17;100.00;102683.25;4863327;29;20582;-48
2021/12/14 10:36:13;;;;;;;25.40;20.45;;;;;;;9.15;100.00;102693.50;4880764;29;20484;-47
2021/12/14 10:39:21;;;;;;;23.33;18.17;;;;;;;9.16;100.00;102703.31;4862148;29;20060;-53
2021/12/14 10:45:23;;;;;;;29.15;22.73;;;;;;;9.06;100.00;102692.06;4880701;29;20104;-49
2021/12/14 10:48:11;;;;;;;26.85;21.40;;;;;;;9.06;100.00;102686.63;4878123;29;20065;-50
2021/12/14 10:51:04;;;;;;;27.98;21.65;;;;;;;9.06;100.00;102692.06;4878466;29;20056;-49
2021/12/14 10:53:54;;;;;;;26.75;20.75;;;;;;;9.03;100.00;102687.06;4877924;29;20413;-47
2021/12/14 10:56:59;;;;;;;29.90;21.63;;;;;;;9.04;100.00;102694.97;4880774;29;20049;-52
2021/12/14 10:59:51;;;;;;;30.38;22.48;;;;;;;9.05;100.00;102693.13;4880560;29;20057;-46
2021/12/14 11:02:24;;;;;;;27.63;21.88;;;;;;;9.04;100.00;102689.53;4859408;29;20144;-51
2021/12/14 11:05:17;;;;;;;28.35;22.60;;;;;;;9.04;100.00;102686.00;4877940;29;20057;-49
2021/12/14 11:08:18;;;;;;;30.30;22.88;;;;;;;9.02;100.00;102679.94;4876574;29;20053;-53
2021/12/14 11:11:10;;;;;;;29.95;20.65;;;;;;;9.09;100.00;102686.19;4871647;29;20057;-53
2021/12/14 11:14:01;;;;;;;29.83;22.63;;;;;;;9.11;100.00;102678.66;4875635;29;20116;-53
2021/12/14 11:20:13;;;;;;;29.10;21.35;;;;;;;9.13;100.00;102674.69;4877472;29;20124;-49
2021/12/14 11:23:16;;;;;;;24.17;18.25;;;;;;;9.16;100.00;102676.13;4878645;29;20419;-54
2021/12/14 11:26:17;;;;;;;24.92;19.83;;;;;;;9.18;100.00;102660.44;4876006;29;20063;-50
2021/12/14 11:29:15;;;;;;;22.40;14.68;;;;;;;9.28;100.00;102646.41;4851236;29;20061;-49
2021/12/14 11:32:03;;;;;;;28.63;21.38;;;;;;;9.34;100.00;102653.72;4873068;29;20711;-49
2021/12/14 11:34:51;;;;;;;27.05;20.05;;;;;;;9.41;100.00;102654.53;4861951;29;20543;-46
2021/12/14 11:37:39;;;;;;;28.92;22.17;;;;;;;9.33;100.00;102661.03;4879426;29;20056;-50
2021/12/14 11:40:32;;;;;;;30.50;21.05;;;;;;;9.26;100.00;102654.78;4878363;29;20064;-48
2021/12/14 11:43:26;;;;;;;29.35;22.15;;;;;;;9.22;100.00;102653.53;4866601;29;20084;-50
2021/12/14 11:46:14;;;;;;;32.33;23.42;;;;;;;9.22;100.00;102648.09;4879151;29;20045;-48
2021/12/14 11:49:04;;;;;;;26.95;19.65;;;;;;;9.24;100.00;102650.63;4877720;29;20041;-49
2021/12/14 11:51:52;;;;;;;31.10;24.33;;;;;;;9.23;100.00;102654.38;4877121;29;20049;-49
2021/12/14 11:54:47;;;;;;;29.92;20.17;;;;;;;9.23;100.00;102657.91;4877063;29;20049;-49
2021/12/14 11:57:35;;;;;;;32.27;24.07;;;;;;;9.23;100.00;102651.66;4873836;29;20049;-49
2021/12/14 12:00:23;;;;;;;30.23;20.85;;;;;;;9.25;100.00;102653.09;4863744;29;20872;-52
2021/12/14 12:03:32;;;;;;;30.80;23.85;;;;;;;9.26;100.00;102653.94;4872774;29;20052;-49
2021/12/14 12:09:30;;;;;;;33.00;24.17;;;;;;;9.30;100.00;102650.56;4879040;29;20427;-49
2021/12/14 12:12:34;;;;;;;35.17;24.25;;;;;;;9.31;100.00;102649.53;4877360;29;20055;-51
2021/12/14 12:15:23;;;;;;;29.45;22.92;;;;;;;9.30;100.00;102653.28;4877438;29;20127;-48
2021/12/14 12:18:11;;;;;;;29.75;23.48;;;;;;;9.27;100.00;102648.28;4878870;29;20065;-53
2021/12/14 12:20:58;;;;;;;29.80;22.38;;;;;;;9.38;100.00;102653.06;4878356;29;20512;-53
2021/12/14 12:23:46;;;;;;;28.98;21.73;;;;;;;9.37;100.00;102645.13;4878359;29;20061;-51
2021/12/14 12:26:34;;;;;;;33.45;23.27;;;;;;;9.34;100.00;102649.09;4877422;29;20056;-48
2021/12/14 12:29:27;;;;;;;33.05;24.08;;;;;;;9.32;100.00;102651.19;4877735;29;20037;-51
2021/12/14 12:32:21;;;;;;;32.50;24.08;;;;;;;9.30;100.00;102660.63;4867727;29;20057;-50
2021/12/14 12:35:33;;;;;;;33.33;26.35;;;;;;;9.29;100.00;102648.09;4854853;29;20092;-45
2021/12/14 12:38:35;;;;;;;34.38;24.88;;;;;;;9.30;100.00;102653.28;4876649;29;20523;-49
2021/12/14 12:41:56;;;;;;;34.50;27.10;;;;;;;9.34;100.00;102651.00;4877339;29;20052;-47
2021/12/14 12:44:44;;;;;;;38.05;27.13;;;;;;;9.34;100.00;102649.09;4871614;29;20060;-51
2021/12/14 12:47:32;;;;;;;33.42;26.38;;;;;;;9.34;100.00;102643.66;4878769;29;20065;-49
2021/12/14 12:50:24;;;;;;;36.70;26.55;;;;;;;9.36;100.00;102644.28;4862500;29;20045;-49
2021/12/14 12:53:23;;;;;;;45.35;33.65;;;;;;;9.41;100.00;102648.25;4876861;29;20120;-49
2021/12/14 12:56:14;;;;;;;41.13;29.77;;;;;;;9.52;100.00;102642.94;4877784;29;20060;-49
2021/12/14 12:59:01;;;;;;;54.15;37.83;;;;;;;9.54;100.00;102646.28;4878229;29;20105;-52
2021/12/14 13:01:49;;;;;;;42.60;30.98;;;;;;;9.56;100.00;102644.19;4874811;29;20155;-45
2021/12/14 13:04:43;;;;;;;44.83;31.13;;;;;;;9.70;100.00;102650.41;4880485;29;20065;-47
2021/12/14 13:07:45;;;;;;;39.58;27.52;;;;;;;9.70;100.00;102644.97;4880020;29;20049;-49
2021/12/14 13:10:43;;;;;;;41.38;29.42;;;;;;;9.69;100.00;102645.19;4881929;29;20053;-51
2021/12/14 13:13:41;;;;;;;37.70;26.08;;;;;;;9.65;100.00;102636.63;4869063;29;20104;-49
2021/12/14 13:16:37;;;;;;;38.10;25.30;;;;;;;9.62;100.00;102641.66;4882374;29;20056;-52
2021/12/14 13:19:29;;;;;;;41.85;27.35;;;;;;;9.58;100.00;102636.66;4868425;29;20463;-47
2021/12/14 13:22:16;;;;;;;45.13;28.70;;;;;;;9.52;100.00;102639.41;4884079;29;20049;-53
2021/12/14 13:25:04;;;;;;;43.45;29.35;;;;;;;9.48;100.00;102640.91;4883772;29;20044;-51
2021/12/14 13:27:51;;;;;;;42.83;27.98;;;;;;;9.42;100.00;102637.13;4868044;29;20105;-49
2021/12/14 13:30:41;;;;;;;42.17;29.05;;;;;;;9.39;100.00;102637.56;4870774;29;20084;-50
2021/12/14 13:33:30;;;;;;;44.17;29.92;;;;;;;9.42;100.00;102637.13;4868955;29;20061;-50
2021/12/14 13:36:18;;;;;;;42.63;27.73;;;;;;;9.42;100.00;102641.75;4870172;29;20052;-49
2021/12/14 13:39:08;;;;;;;42.70;28.35;;;;;;;9.41;100.00;102650.97;4883752;29;20170;-53
2021/12/14 13:42:07;;;;;;;42.15;29.08;;;;;;;9.43;100.00;102648.84;4884219;29;20515;-50
2021/12/14 13:44:55;;;;;;;42.42;24.77;;;;;;;9.46;100.00;102643.00;4884360;29;20500;-51
2021/12/14 13:47:44;;;;;;;48.10;29.17;;;;;;;9.54;100.00;102640.03;4870206;29;20057;-48
2021/12/14 13:50:38;;;;;;;46.55;31.17;;;;;;;9.45;100.00;102636.69;4878783;29;20068;-50
2021/12/14 13:53:16;;;;;;;44.90;30.75;;;;;;;9.39;100.00;102643.84;4867627;29;20175;-50
2021/12/14 13:56:39;;;;;;;45.97;29.50;;;;;;;9.38;100.00;102631.31;4869840;29;20136;-48
2021/12/14 13:59:26;;;;;;;40.47;28.70;;;;;;;9.41;100.00;102635.47;4870284;29;20052;-56